createdAt,value
2023-03-17T00:00:19.756Z,2029.00
2023-03-17T00:04:19.959Z,2045.00
2023-03-17T00:08:20.119Z,2021.00
2023-03-17T00:12:20.304Z,1998.00
2023-03-17T00:16:20.497Z,2038.00
2023-03-17T00:20:20.656Z,1984.00
2023-03-17T00:24:20.879Z,1983.00
2023-03-17T00:28:21.045Z,1986.00
2023-03-17T00:32:21.273Z,1982.00
2023-03-17T00:36:21.440Z,1971.00
2023-03-17T00:40:21.657Z,1985.00
2023-03-17T00:44:21.790Z,1949.00
2023-03-17T00:48:22.043Z,1966.00
2023-03-17T00:52:22.250Z,1963.00
2023-03-17T00:56:22.424Z,1930.00
2023-03-17T01:00:22.693Z,1923.00
2023-03-17T01:04:22.895Z,1916.00
2023-03-17T01:08:23.077Z,1894.00
2023-03-17T01:12:23.046Z,1917.00
2023-03-17T01:16:23.066Z,1910.00
2023-03-17T01:20:22.937Z,1880.00
2023-03-17T01:24:22.945Z,1883.00
2023-03-17T01:28:22.893Z,1852.00
2023-03-17T01:32:22.873Z,1887.00
2023-03-17T01:36:22.837Z,1862.00
2023-03-17T01:40:22.816Z,1879.00
2023-03-17T01:44:22.736Z,1847.00
2023-03-17T01:48:22.711Z,1853.00
2023-03-17T01:52:22.865Z,1836.00
2023-03-17T01:56:22.778Z,1813.00
2023-03-17T02:00:22.768Z,1831.00
2023-03-17T02:04:22.787Z,1806.00
2023-03-17T02:08:22.708Z,1826.00
2023-03-17T02:12:22.661Z,1810.00
2023-03-17T02:16:22.700Z,1802.00
2023-03-17T02:20:22.540Z,1778.00
2023-03-17T02:24:22.519Z,1777.00
2023-03-17T02:28:22.504Z,1752.00
2023-03-17T02:32:22.501Z,1740.00
2023-03-17T02:36:22.600Z,1779.00
2023-03-17T02:40:22.461Z,1733.00
2023-03-17T02:44:22.448Z,1750.00
2023-03-17T02:48:22.380Z,1742.00
2023-03-17T02:52:22.339Z,1708.00
2023-03-17T02:56:22.297Z,1706.00
2023-03-17T03:00:22.296Z,1707.00
2023-03-17T03:04:22.265Z,1684.00
2023-03-17T03:08:22.230Z,1689.00
2023-03-17T03:12:22.408Z,1679.00
2023-03-17T03:16:22.364Z,1677.00
2023-03-17T03:20:22.339Z,1692.00
2023-03-17T03:24:22.279Z,1694.00
2023-03-17T03:28:22.239Z,1666.00
2023-03-17T03:32:22.218Z,1655.00
2023-03-17T03:36:22.157Z,1635.00
2023-03-17T03:40:22.128Z,1628.00
2023-03-17T03:44:22.602Z,1610.00
2023-03-17T03:48:22.076Z,1566.00
2023-03-17T03:52:22.072Z,1540.00
2023-03-17T03:56:22.180Z,1556.00
2023-03-17T04:00:22.352Z,1533.00
2023-03-17T04:04:22.335Z,1510.00
2023-03-17T04:08:22.311Z,1492.00
2023-03-17T04:12:22.315Z,1471.00
2023-03-17T04:16:22.261Z,1476.00
2023-03-17T04:20:22.184Z,1481.00
2023-03-17T04:24:22.152Z,1488.00
2023-03-17T04:28:22.095Z,1418.00
2023-03-17T04:32:22.064Z,1411.00
2023-03-17T04:36:21.992Z,1443.00
2023-03-17T04:40:21.990Z,1405.00
2023-03-17T04:44:21.970Z,1405.00
2023-03-17T04:48:21.928Z,1404.00
2023-03-17T04:52:21.874Z,1383.00
2023-03-17T04:56:21.854Z,1392.00
2023-03-17T05:00:21.809Z,1354.00
2023-03-17T05:04:31.154Z,1330.00
2023-03-17T05:08:22.744Z,1359.00
2023-03-17T05:12:21.697Z,1336.00
2023-03-17T05:16:21.673Z,1342.00
2023-03-17T05:20:21.598Z,1344.00
2023-03-17T05:24:21.550Z,1298.00
2023-03-17T05:28:21.522Z,1322.00
2023-03-17T05:32:21.565Z,1318.00
2023-03-17T05:36:21.626Z,1311.00
2023-03-17T05:40:23.774Z,1292.00
2023-03-17T05:44:21.570Z,1246.00
2023-03-17T05:48:21.588Z,1286.00
2023-03-17T05:52:21.584Z,1241.00
2023-03-17T05:56:21.713Z,1256.00
2023-03-17T06:00:21.788Z,1247.00
2023-03-17T06:04:21.725Z,1234.00
2023-03-17T06:08:21.743Z,1243.00
2023-03-17T06:12:21.784Z,1239.00
2023-03-17T06:16:21.874Z,1270.00
2023-03-17T06:20:21.950Z,1244.00
2023-03-17T06:24:21.974Z,1241.00
2023-03-17T06:28:22.097Z,1242.00
2023-03-17T06:32:22.115Z,1232.00
2023-03-17T06:36:22.237Z,1222.00
2023-03-17T06:40:22.619Z,1066.00
2023-03-17T06:44:22.653Z,1204.00
2023-03-17T06:48:22.635Z,1325.00
2023-03-17T06:52:22.638Z,1371.00
2023-03-17T06:56:29.879Z,1468.00
2023-03-17T07:00:23.639Z,1512.00
2023-03-17T07:04:22.416Z,1530.00
2023-03-17T07:08:22.620Z,1351.00
2023-03-17T07:12:22.567Z,1561.00
2023-03-17T07:16:22.653Z,1610.00
2023-03-17T07:20:22.682Z,1594.00
2023-03-17T07:24:22.678Z,1634.00
2023-03-17T07:28:22.655Z,1649.00
2023-03-17T07:32:22.573Z,1663.00
2023-03-17T07:36:22.645Z,1687.00
2023-03-17T07:40:22.528Z,1726.00
2023-03-17T07:44:22.673Z,1736.00
2023-03-17T07:48:22.430Z,1762.00
2023-03-17T07:52:22.629Z,637.00
2023-03-17T07:56:22.658Z,694.00
2023-03-17T08:00:22.357Z,864.00
2023-03-17T08:04:22.262Z,1041.00
2023-03-17T08:08:22.237Z,1133.00
2023-03-17T08:12:22.181Z,1241.00
2023-03-17T08:16:22.204Z,1314.00
2023-03-17T08:20:22.126Z,1353.00
2023-03-17T08:24:22.102Z,1391.00
2023-03-17T08:28:22.052Z,1450.00
2023-03-17T08:32:22.085Z,1555.00
2023-03-17T08:36:22.023Z,1573.00
2023-03-17T08:40:22.181Z,1604.00
2023-03-17T08:44:21.895Z,1667.00
2023-03-17T08:48:22.170Z,1516.00
2023-03-17T08:52:22.188Z,943.00
2023-03-17T08:56:22.186Z,631.00
2023-03-17T09:00:21.755Z,513.00
2023-03-17T09:04:21.710Z,906.00
2023-03-17T09:08:22.155Z,1279.00
2023-03-17T09:12:21.663Z,1423.00
2023-03-17T09:16:21.674Z,1462.00
2023-03-17T09:20:21.683Z,1520.00
2023-03-17T09:24:21.663Z,1545.00
2023-03-17T09:28:21.725Z,1594.00
2023-03-17T09:32:21.561Z,1640.00
2023-03-17T09:36:21.562Z,1661.00
2023-03-17T09:40:21.673Z,1703.00
2023-03-17T09:44:21.693Z,1944.00
2023-03-17T09:48:21.714Z,2392.00
2023-03-17T09:52:21.421Z,2610.00
2023-03-17T09:56:21.705Z,2783.00
2023-03-17T10:00:21.301Z,2904.00
2023-03-17T10:04:21.728Z,2989.00
2023-03-17T10:08:30.828Z,3037.00
2023-03-17T10:12:22.168Z,3056.00
2023-03-17T10:16:21.216Z,3098.00
2023-03-17T10:20:21.356Z,3131.00
2023-03-17T10:24:21.700Z,3163.00
2023-03-17T10:28:21.734Z,3187.00
2023-03-17T10:32:21.903Z,3226.00
2023-03-17T10:36:22.219Z,3245.00
2023-03-17T10:40:22.687Z,3273.00
2023-03-17T10:44:22.361Z,3329.00
2023-03-17T10:48:22.725Z,3255.00
2023-03-17T10:52:22.705Z,3215.00
2023-03-17T10:56:22.820Z,3157.00
2023-03-17T11:00:23.224Z,3101.00
2023-03-17T11:04:23.195Z,3041.00
2023-03-17T11:08:23.237Z,2990.00
2023-03-17T11:12:23.150Z,2941.00
2023-03-17T11:16:23.267Z,2885.00
2023-03-17T11:20:23.077Z,2832.00
2023-03-17T11:24:23.026Z,2784.00
2023-03-17T11:28:22.973Z,2748.00
2023-03-17T11:32:22.962Z,2713.00
2023-03-17T11:36:22.941Z,1334.00
2023-03-17T11:40:23.238Z,400.00
2023-03-17T11:44:23.279Z,539.00
2023-03-17T11:48:23.246Z,1075.00
2023-03-17T11:52:22.949Z,1625.00
2023-03-17T11:56:23.111Z,1711.00
2023-03-17T12:00:23.227Z,1870.00
2023-03-17T12:04:23.282Z,2044.00
2023-03-17T12:08:23.351Z,2175.00
2023-03-17T12:12:23.545Z,2316.00
2023-03-17T12:16:23.733Z,2405.00
2023-03-17T12:20:23.921Z,2475.00
2023-03-17T12:24:24.234Z,2555.00
2023-03-17T12:28:24.309Z,2611.00
2023-03-17T12:32:24.748Z,2661.00
2023-03-17T12:36:24.751Z,2781.00
2023-03-17T12:40:26.213Z,2729.00
2023-03-17T12:44:25.259Z,2696.00
2023-03-17T12:48:25.268Z,1081.00
2023-03-17T12:52:25.319Z,462.00
2023-03-17T12:56:25.402Z,400.00
2023-03-17T13:00:25.592Z,540.00
2023-03-17T13:04:27.130Z,499.00
2023-03-17T13:08:25.496Z,689.00
2023-03-17T13:12:25.451Z,1608.00
2023-03-17T13:16:26.674Z,1978.00
2023-03-17T13:20:25.392Z,2234.00
2023-03-17T13:24:25.315Z,2388.00
2023-03-17T13:28:25.437Z,2601.00
2023-03-17T13:32:25.622Z,2716.00
2023-03-17T13:36:25.810Z,2835.00
2023-03-17T13:40:25.992Z,2920.00
2023-03-17T13:44:26.151Z,2996.00
2023-03-17T13:48:26.342Z,3096.00
2023-03-17T13:52:26.525Z,3130.00
2023-03-17T13:56:26.664Z,3320.00
2023-03-17T14:00:26.915Z,3360.00
2023-03-17T14:04:26.928Z,3362.00
2023-03-17T14:08:26.950Z,3390.00
2023-03-17T14:12:26.975Z,3384.00
2023-03-17T14:16:27.160Z,3407.00
2023-03-17T14:20:27.090Z,3466.00
2023-03-17T14:24:27.189Z,3450.00
2023-03-17T14:28:27.296Z,3421.00
2023-03-17T14:32:27.399Z,3469.00
2023-03-17T14:36:27.431Z,3476.00
2023-03-17T14:40:27.509Z,3467.00
2023-03-17T14:44:27.598Z,3451.00
2023-03-17T14:48:27.679Z,3454.00
2023-03-17T14:52:27.747Z,3444.00
2023-03-17T14:56:27.714Z,3436.00
2023-03-17T15:00:27.748Z,3437.00
2023-03-17T15:04:27.881Z,3429.00
2023-03-17T15:08:28.081Z,3423.00
2023-03-17T15:12:28.159Z,3420.00
2023-03-17T15:16:28.415Z,3418.00
2023-03-17T15:20:28.508Z,3392.00
2023-03-17T15:24:28.609Z,3390.00
2023-03-17T15:28:28.754Z,3381.00
2023-03-17T15:32:28.852Z,3369.00
2023-03-17T15:36:32.590Z,3346.00
2023-03-17T15:40:28.750Z,3357.00
2023-03-17T15:44:28.745Z,3351.00
2023-03-17T15:48:28.684Z,3330.00
2023-03-17T15:52:28.665Z,3313.00
2023-03-17T15:56:28.637Z,3305.00
2023-03-17T16:00:28.560Z,3301.00
2023-03-17T16:04:28.598Z,3264.00
2023-03-17T16:08:28.512Z,3268.00
2023-03-17T16:12:28.485Z,3249.00
2023-03-17T16:16:28.432Z,3242.00
2023-03-17T16:20:28.408Z,3216.00
2023-03-17T16:24:28.371Z,3215.00
2023-03-17T16:28:28.418Z,3199.00
2023-03-17T16:32:28.607Z,3182.00
2023-03-17T16:36:28.613Z,3169.00
2023-03-17T16:40:29.063Z,3159.00
2023-03-17T16:44:29.406Z,3139.00
2023-03-17T16:48:29.049Z,3128.00
2023-03-17T16:52:29.219Z,3122.00
2023-03-17T16:56:29.423Z,3115.00
2023-03-17T17:00:29.973Z,3083.00
2023-03-17T17:04:29.754Z,3086.00
2023-03-17T17:08:29.970Z,3060.00
2023-03-17T17:12:30.130Z,3045.00
2023-03-17T17:16:30.418Z,3022.00
2023-03-17T17:20:30.858Z,3015.00
2023-03-17T17:24:30.677Z,3008.00
2023-03-17T17:28:30.874Z,2992.00
2023-03-17T17:32:31.064Z,2977.00
2023-03-17T17:36:31.258Z,2971.00
2023-03-17T17:40:31.430Z,2952.00
2023-03-17T17:44:31.194Z,2940.00
2023-03-17T17:48:31.101Z,2911.00
2023-03-17T17:52:31.193Z,2914.00
2023-03-17T17:56:31.053Z,2911.00
2023-03-17T18:00:31.250Z,2887.00
2023-03-17T18:04:31.073Z,2878.00
2023-03-17T18:08:30.941Z,2866.00
2023-03-17T18:12:31.079Z,2848.00
2023-03-17T18:16:31.208Z,2831.00
2023-03-17T18:20:31.257Z,2831.00
2023-03-17T18:24:30.993Z,2815.00
2023-03-17T18:28:30.932Z,2796.00
2023-03-17T18:32:30.956Z,2789.00
2023-03-17T18:36:30.819Z,2755.00
2023-03-17T18:40:30.802Z,2753.00
2023-03-17T18:44:30.784Z,2739.00
2023-03-17T18:48:30.728Z,2731.00
2023-03-17T18:52:30.702Z,2723.00
2023-03-17T18:56:30.670Z,2699.00
2023-03-17T19:00:31.049Z,2689.00
2023-03-17T19:04:30.786Z,2669.00
2023-03-17T19:08:30.811Z,2674.00
2023-03-17T19:12:30.876Z,2652.00
2023-03-17T19:16:31.013Z,2652.00
2023-03-17T19:20:31.197Z,2646.00
2023-03-17T19:24:30.986Z,2615.00
2023-03-17T19:28:30.954Z,2606.00
2023-03-17T19:32:30.994Z,2609.00
2023-03-17T19:36:30.984Z,2586.00
2023-03-17T19:40:31.220Z,2586.00
2023-03-17T19:44:30.915Z,2567.00
2023-03-17T19:48:30.907Z,2564.00
2023-03-17T19:52:30.903Z,2538.00
2023-03-17T19:56:30.912Z,2535.00
2023-03-17T20:00:31.136Z,2520.00
2023-03-17T20:04:30.916Z,2511.00
2023-03-17T20:08:30.844Z,2500.00
2023-03-17T20:12:30.881Z,2503.00
2023-03-17T20:16:30.797Z,2471.00
2023-03-17T20:20:31.328Z,2467.00
2023-03-17T20:24:30.835Z,2462.00
2023-03-17T20:28:30.903Z,2468.00
2023-03-17T20:32:30.976Z,2444.00
2023-03-17T20:36:30.947Z,2435.00
2023-03-17T20:40:31.294Z,2428.00
2023-03-17T20:44:31.004Z,2416.00
2023-03-17T20:48:31.025Z,2412.00
2023-03-17T20:52:31.077Z,2399.00
2023-03-17T20:56:31.133Z,2391.00
2023-03-17T21:00:31.259Z,2384.00
2023-03-17T21:04:31.148Z,2368.00
2023-03-17T21:08:31.197Z,2364.00
2023-03-17T21:12:31.247Z,2353.00
2023-03-17T21:16:31.378Z,2340.00
2023-03-17T21:20:31.568Z,2340.00
2023-03-17T21:24:31.417Z,2325.00
2023-03-17T21:28:31.443Z,2317.00
2023-03-17T21:32:31.531Z,2317.00
2023-03-17T21:36:31.554Z,2295.00
2023-03-17T21:40:31.945Z,2293.00
2023-03-17T21:44:31.711Z,2297.00
2023-03-17T21:48:31.785Z,2282.00
2023-03-17T21:52:31.891Z,2282.00
2023-03-17T21:56:31.975Z,2263.00
2023-03-17T22:00:42.645Z,2254.00
2023-03-17T22:04:32.987Z,2261.00
2023-03-17T22:08:31.958Z,2252.00
2023-03-17T22:12:31.929Z,2253.00
2023-03-17T22:16:31.933Z,2225.00
2023-03-17T22:20:32.124Z,2231.00
2023-03-17T22:24:32.016Z,2222.00
2023-03-17T22:28:32.113Z,2214.00
2023-03-17T22:32:32.219Z,2216.00
2023-03-17T22:36:32.319Z,2212.00
2023-03-17T22:40:32.605Z,2205.00
2023-03-17T22:44:32.518Z,2192.00
2023-03-17T22:48:32.604Z,2174.00
2023-03-17T22:52:32.706Z,2176.00
2023-03-17T22:56:32.804Z,2171.00
2023-03-17T23:00:33.345Z,2161.00
2023-03-17T23:04:33.052Z,2157.00
2023-03-17T23:08:33.222Z,2160.00
2023-03-17T23:12:33.246Z,2147.00
2023-03-17T23:16:33.445Z,2141.00
2023-03-17T23:20:33.920Z,2130.00
2023-03-17T23:24:33.731Z,2115.00
2023-03-17T23:28:33.943Z,2112.00
2023-03-17T23:32:34.051Z,2109.00
2023-03-17T23:36:33.867Z,2096.00
2023-03-17T23:40:34.257Z,2094.00
2023-03-17T23:44:33.799Z,2085.00
2023-03-17T23:48:33.718Z,2079.00
2023-03-17T23:52:33.717Z,2076.00
2023-03-17T23:56:33.670Z,2068.00
